createdAt,value
2018-04-07T00:01:45.039Z,13.33
2018-04-07T00:04:14.171Z,15.30
2018-04-07T00:06:43.277Z,15.47
2018-04-07T00:09:12.405Z,12.10
2018-04-07T00:11:42.342Z,14.50
2018-04-07T00:14:11.449Z,13.30
2018-04-07T00:16:40.565Z,15.13
2018-04-07T00:19:09.677Z,16.60
2018-04-07T00:21:38.783Z,17.60
2018-04-07T00:24:07.934Z,16.10
2018-04-07T00:26:37.824Z,14.93
2018-04-07T00:29:06.946Z,16.67
2018-04-07T00:31:36.068Z,17.10
2018-04-07T00:34:05.183Z,16.13
2018-04-07T00:36:34.305Z,21.00
2018-04-07T00:39:04.197Z,18.40
2018-04-07T00:41:33.307Z,15.13
2018-04-07T00:44:02.412Z,17.37
2018-04-07T00:46:32.307Z,14.43
2018-04-07T00:49:01.406Z,20.60
2018-04-07T00:51:30.555Z,15.43
2018-04-07T00:53:59.633Z,16.17
2018-04-07T00:56:29.530Z,17.73
2018-04-07T00:58:58.643Z,14.87
2018-04-07T01:01:27.777Z,15.83
2018-04-07T01:03:56.886Z,16.60
2018-04-07T01:06:26.023Z,28.63
2018-04-07T01:08:55.891Z,16.67
2018-04-07T01:11:25.021Z,16.53
2018-04-07T01:13:54.886Z,13.13
2018-04-07T01:16:23.999Z,15.60
2018-04-07T01:18:53.125Z,15.07
2018-04-07T01:21:22.990Z,16.73
2018-04-07T01:23:52.110Z,13.70
2018-04-07T01:26:22.000Z,14.37
2018-04-07T01:28:51.116Z,13.00
2018-04-07T01:31:20.210Z,19.60
2018-04-07T01:33:49.334Z,17.63
2018-04-07T01:36:19.217Z,20.03
2018-04-07T01:38:48.766Z,19.87
2018-04-07T01:41:18.623Z,16.67
2018-04-07T01:43:48.742Z,16.23
2018-04-07T01:46:17.865Z,16.77
2018-04-07T01:48:46.975Z,17.93
2018-04-07T01:51:16.868Z,17.50
2018-04-07T01:53:45.987Z,13.17
2018-04-07T01:56:15.085Z,12.97
2018-04-07T01:58:44.969Z,14.47
2018-04-07T02:01:14.086Z,17.90
2018-04-07T02:03:43.187Z,15.67
2018-04-07T02:06:12.319Z,24.87
2018-04-07T02:08:41.429Z,18.80
2018-04-07T02:11:10.545Z,17.40
2018-04-07T02:13:39.657Z,15.00
2018-04-07T02:16:08.784Z,42.13
2018-04-07T02:18:37.879Z,16.90
2018-04-07T02:21:07.766Z,37.53
2018-04-07T02:23:36.878Z,24.30
2018-04-07T02:26:06.771Z,18.00
2018-04-07T02:28:36.633Z,17.97
2018-04-07T02:31:05.739Z,20.50
2018-04-07T02:33:34.887Z,15.40
2018-04-07T02:36:03.992Z,18.42
2018-04-07T02:38:33.106Z,17.50
2018-04-07T02:41:02.975Z,20.95
2018-04-07T02:43:32.087Z,14.83
2018-04-07T02:46:01.212Z,17.15
2018-04-07T02:48:31.091Z,17.73
2018-04-07T02:51:00.195Z,20.33
2018-04-07T02:53:29.309Z,16.73
2018-04-07T02:55:58.408Z,15.80
2018-04-07T02:58:28.293Z,16.30
2018-04-07T03:00:57.385Z,16.65
2018-04-07T03:03:26.491Z,16.90
2018-04-07T03:05:55.608Z,16.02
2018-04-07T03:08:25.498Z,13.13
2018-04-07T03:10:54.601Z,16.20
2018-04-07T03:13:23.742Z,17.63
2018-04-07T03:15:52.848Z,21.13
2018-04-07T03:18:21.949Z,16.50
2018-04-07T03:20:51.065Z,16.90
2018-04-07T03:23:20.222Z,18.63
2018-04-07T03:25:49.317Z,17.07
2018-04-07T03:28:19.185Z,18.10
2018-04-07T03:30:48.951Z,17.65
2018-04-07T03:33:18.838Z,22.83
2018-04-07T03:35:48.950Z,17.52
2018-04-07T03:38:18.059Z,17.37
2018-04-07T03:40:47.180Z,16.90
2018-04-07T03:43:16.283Z,18.80
2018-04-07T03:45:45.412Z,17.17
2018-04-07T03:48:14.494Z,18.70
2018-04-07T03:50:43.608Z,18.00
2018-04-07T03:53:12.724Z,16.80
2018-04-07T03:55:41.861Z,16.97
2018-04-07T03:58:10.958Z,18.10
2018-04-07T04:00:40.091Z,17.70
2018-04-07T04:03:09.223Z,14.50
2018-04-07T04:05:39.114Z,17.00
2018-04-07T04:08:08.207Z,19.60
2018-04-07T04:10:37.317Z,19.00
2018-04-07T04:13:07.208Z,17.77
2018-04-07T04:15:36.294Z,17.73
2018-04-07T04:18:05.419Z,16.77
2018-04-07T04:20:35.302Z,18.10
2018-04-07T04:23:04.408Z,16.87
2018-04-07T04:25:33.529Z,15.13
2018-04-07T04:28:02.661Z,21.03
2018-04-07T04:30:31.750Z,24.93
2018-04-07T04:33:00.878Z,16.03
2018-04-07T04:35:29.974Z,15.70
2018-04-07T04:37:59.098Z,17.23
2018-04-07T04:40:28.980Z,20.70
2018-04-07T04:42:58.853Z,18.50
2018-04-07T04:45:28.719Z,19.90
2018-04-07T04:47:57.822Z,23.40
2018-04-07T04:50:26.946Z,22.37
2018-04-07T04:52:56.065Z,24.40
2018-04-07T04:55:25.947Z,16.67
2018-04-07T04:57:55.048Z,19.42
2018-04-07T05:00:24.168Z,21.83
2018-04-07T05:02:54.065Z,17.40
2018-04-07T05:05:23.183Z,21.20
2018-04-07T05:07:53.040Z,20.20
2018-04-07T05:10:22.148Z,18.17
2018-04-07T05:12:51.258Z,19.87
2018-04-07T05:15:20.377Z,21.83
2018-04-07T05:17:49.471Z,19.83
2018-04-07T05:20:19.359Z,18.50
2018-04-07T05:22:49.208Z,26.42
2018-04-07T05:25:19.079Z,16.47
2018-04-07T05:27:49.186Z,20.94
2018-04-07T05:30:18.307Z,17.60
2018-04-07T05:32:47.424Z,18.53
2018-04-07T05:35:17.287Z,17.60
2018-04-07T05:37:46.410Z,19.03
2018-04-07T05:40:15.523Z,18.77
2018-04-07T05:42:44.641Z,21.13
2018-04-07T05:45:13.824Z,25.90
2018-04-07T05:47:43.723Z,18.67
2018-04-07T05:50:12.821Z,24.17
2018-04-07T05:52:41.958Z,21.37
2018-04-07T05:55:11.052Z,22.17
2018-04-07T05:57:40.176Z,18.40
2018-04-07T06:00:09.282Z,20.97
2018-04-07T06:02:38.433Z,19.40
2018-04-07T06:05:08.286Z,22.83
2018-04-07T06:07:37.396Z,20.63
2018-04-07T06:10:06.533Z,16.97
2018-04-07T06:12:36.390Z,19.27
2018-04-07T06:15:05.516Z,19.90
2018-04-07T06:17:34.644Z,16.30
2018-04-07T06:20:04.526Z,19.90
2018-04-07T06:22:33.629Z,22.30
2018-04-07T06:25:02.758Z,18.23
2018-04-07T06:27:31.856Z,18.87
2018-04-07T06:30:00.995Z,18.30
2018-04-07T06:32:30.118Z,18.90
2018-04-07T06:35:00.020Z,19.37
2018-04-07T06:40:09.306Z,20.60
2018-04-07T06:42:38.437Z,19.87
2018-04-07T06:45:08.363Z,22.60
2018-04-07T06:47:37.466Z,19.93
2018-04-07T06:50:07.390Z,22.83
2018-04-07T06:52:37.267Z,17.60
2018-04-07T06:55:06.445Z,20.40
2018-04-07T06:57:36.303Z,17.70
2018-04-07T07:00:06.224Z,19.30
2018-04-07T07:02:36.109Z,20.63
2018-04-07T07:05:05.243Z,23.70
2018-04-07T07:07:35.124Z,22.37
2018-04-07T07:10:04.264Z,23.97
2018-04-07T07:12:33.384Z,19.77
2018-04-07T07:15:02.510Z,21.63
2018-04-07T07:17:32.577Z,20.53
2018-04-07T07:20:01.699Z,20.50
2018-04-07T07:22:30.828Z,22.77
2018-04-07T07:24:59.947Z,20.12
2018-04-07T07:27:29.093Z,20.10
2018-04-07T07:29:58.213Z,22.57
2018-04-07T07:32:28.110Z,23.53
2018-04-07T07:34:57.233Z,23.00
2018-04-07T07:37:27.149Z,20.20
2018-04-07T07:39:57.598Z,25.17
2018-04-07T07:42:26.728Z,22.30
2018-04-07T07:44:55.841Z,24.48
2018-04-07T07:47:25.742Z,21.43
2018-04-07T07:49:54.875Z,21.40
2018-04-07T07:52:23.998Z,22.93
2018-04-07T07:54:53.124Z,19.80
2018-04-07T07:57:22.249Z,23.30
2018-04-07T07:59:51.398Z,23.33
2018-04-07T08:02:20.470Z,23.60
2018-04-07T08:04:49.608Z,22.07
2018-04-07T08:07:18.718Z,19.37
2018-04-07T08:09:49.864Z,21.87
2018-04-07T08:12:19.741Z,24.10
2018-04-07T08:14:50.289Z,21.73
2018-04-07T08:17:19.412Z,24.67
2018-04-07T08:19:49.480Z,25.73
2018-04-07T08:22:18.609Z,21.13
2018-04-07T08:24:49.762Z,23.67
2018-04-07T08:27:18.898Z,27.83
2018-04-07T08:29:48.029Z,24.10
2018-04-07T08:32:18.013Z,23.40
2018-04-07T08:34:47.076Z,23.93
2018-04-07T08:37:16.228Z,26.63
2018-04-07T08:39:45.326Z,24.60
2018-04-07T08:42:15.252Z,33.93
2018-04-07T08:44:45.116Z,27.63
2018-04-07T08:47:14.328Z,28.40
2018-04-07T08:49:43.481Z,26.00
2018-04-07T08:52:12.618Z,24.30
2018-04-07T08:54:41.741Z,22.90
2018-04-07T08:57:11.631Z,36.10
2018-04-07T08:59:40.777Z,26.50
2018-04-07T09:02:09.912Z,22.60
2018-04-07T09:04:39.011Z,28.37
2018-04-07T09:07:08.135Z,22.00
2018-04-07T09:09:37.263Z,29.73
2018-04-07T09:12:06.383Z,22.80
2018-04-07T09:14:35.527Z,24.70
2018-04-07T09:17:04.656Z,25.35
2018-04-07T09:19:33.783Z,22.73
2018-04-07T09:22:02.926Z,28.23
2018-04-07T09:24:32.052Z,31.23
2018-04-07T09:27:01.166Z,25.27
2018-04-07T09:29:30.316Z,20.80
2018-04-07T09:31:59.422Z,29.52
2018-04-07T09:34:28.555Z,20.90
2018-04-07T09:36:58.442Z,22.07
2018-04-07T09:39:27.570Z,24.80
2018-04-07T09:41:56.675Z,22.87
2018-04-07T09:44:25.803Z,22.57
2018-04-07T09:46:54.922Z,22.87
2018-04-07T09:49:24.063Z,23.93
2018-04-07T09:51:53.195Z,24.13
2018-04-07T09:54:22.309Z,25.50
2018-04-07T09:56:51.447Z,23.93
2018-04-07T09:59:20.575Z,24.73
2018-04-07T10:01:50.523Z,23.33
2018-04-07T10:04:20.427Z,26.47
2018-04-07T10:06:50.682Z,27.30
2018-04-07T10:09:20.554Z,27.83
2018-04-07T10:11:49.747Z,28.40
2018-04-07T10:14:18.860Z,22.33
2018-04-07T10:16:50.005Z,22.57
2018-04-07T10:19:19.876Z,29.93
2018-04-07T10:21:50.555Z,25.12
2018-04-07T10:24:20.460Z,28.70
2018-04-07T10:26:49.759Z,26.90
2018-04-07T10:29:18.878Z,26.40
2018-04-07T10:31:48.022Z,24.77
2018-04-07T10:34:17.161Z,22.13
2018-04-07T10:36:48.096Z,31.40
2018-04-07T10:39:18.020Z,22.27
2018-04-07T10:41:47.117Z,26.90
2018-04-07T10:44:16.254Z,25.53
2018-04-07T10:46:45.381Z,22.67
2018-04-07T10:49:14.545Z,25.33
2018-04-07T10:51:43.610Z,26.03
2018-04-07T10:54:12.766Z,33.37
2018-04-07T10:56:42.678Z,25.27
2018-04-07T10:59:11.790Z,23.80
2018-04-07T11:01:40.918Z,27.10
2018-04-07T11:04:10.080Z,24.27
2018-04-07T11:06:39.953Z,23.23
2018-04-07T11:09:09.096Z,25.70
2018-04-07T11:11:38.198Z,26.10
2018-04-07T11:14:07.346Z,24.42
2018-04-07T11:16:36.454Z,23.03
2018-04-07T11:19:05.623Z,26.48
2018-04-07T11:21:34.734Z,22.73
2018-04-07T11:24:04.643Z,24.10
2018-04-07T11:26:34.543Z,22.03
2018-04-07T11:29:03.679Z,23.53
2018-04-07T11:31:33.582Z,22.63
2018-04-07T11:34:03.480Z,28.58
2018-04-07T11:36:32.583Z,28.53
2018-04-07T11:39:01.718Z,22.90
2018-04-07T11:41:30.848Z,26.03
2018-04-07T11:43:59.985Z,22.80
2018-04-07T11:46:29.143Z,20.80
2018-04-07T11:48:58.256Z,25.80
2018-04-07T11:51:28.190Z,26.63
2018-04-07T11:53:57.322Z,24.27
2018-04-07T11:56:26.463Z,27.97
2018-04-07T11:58:56.386Z,19.97
2018-04-07T12:01:26.299Z,24.30
2018-04-07T12:03:55.418Z,23.45
2018-04-07T12:06:24.531Z,25.13
2018-04-07T12:08:53.675Z,27.67
2018-04-07T12:11:23.605Z,25.20
2018-04-07T12:13:53.505Z,24.70
2018-04-07T12:16:23.400Z,31.13
2018-04-07T12:18:52.588Z,23.43
2018-04-07T12:21:21.697Z,26.00
2018-04-07T12:23:50.825Z,22.13
2018-04-07T12:26:19.942Z,22.60
2018-04-07T12:28:50.033Z,31.90
2018-04-07T12:31:19.163Z,20.70
2018-04-07T12:33:48.298Z,23.47
2018-04-07T12:36:18.200Z,23.63
2018-04-07T12:38:48.111Z,23.60
2018-04-07T12:41:18.023Z,26.80
2018-04-07T12:43:47.899Z,22.73
2018-04-07T12:46:17.043Z,23.40
2018-04-07T12:48:46.160Z,25.30
2018-04-07T12:51:15.338Z,24.70
2018-04-07T12:53:44.418Z,24.00
2018-04-07T12:56:14.312Z,21.33
2018-04-07T12:58:43.461Z,22.13
2018-04-07T13:01:12.588Z,24.20
2018-04-07T13:03:41.713Z,29.70
2018-04-07T13:06:10.951Z,20.73
2018-04-07T13:08:40.100Z,26.50
2018-04-07T13:11:09.998Z,22.77
2018-04-07T13:13:39.120Z,22.67
2018-04-07T13:16:08.999Z,26.33
2018-04-07T13:18:38.135Z,26.50
2018-04-07T13:21:07.240Z,21.77
2018-04-07T13:23:36.378Z,25.03
2018-04-07T13:26:05.678Z,23.98
2018-04-07T13:28:34.799Z,21.00
2018-04-07T13:31:04.698Z,19.92
2018-04-07T13:33:38.527Z,21.13
2018-04-07T13:36:02.984Z,19.83
2018-04-07T13:38:32.083Z,16.67
2018-04-07T13:41:01.210Z,18.03
2018-04-07T13:43:30.380Z,18.10
2018-04-07T13:46:00.276Z,13.30
2018-04-07T13:48:29.408Z,12.63
2018-04-07T13:50:58.543Z,11.70
2018-04-07T13:53:27.654Z,16.20
2018-04-07T13:55:56.778Z,18.55
2018-04-07T13:58:26.686Z,15.73
2018-04-07T14:00:56.627Z,16.27
2018-04-07T14:03:25.734Z,12.93
2018-04-07T14:05:54.855Z,18.48
2018-04-07T14:08:23.979Z,13.23
2018-04-07T14:10:53.111Z,18.17
2018-04-07T14:13:22.243Z,26.73
2018-04-07T14:15:51.369Z,19.83
2018-04-07T14:18:21.266Z,18.57
2018-04-07T14:20:50.412Z,18.60
2018-04-07T14:23:19.577Z,13.53
2018-04-07T14:25:48.707Z,16.73
2018-04-07T14:28:17.848Z,10.80
2018-04-07T14:30:46.965Z,16.53
2018-04-07T14:33:16.867Z,16.20
2018-04-07T14:35:46.732Z,23.83
2018-04-07T14:38:16.632Z,13.47
2018-04-07T14:40:45.762Z,19.77
2018-04-07T14:43:14.891Z,13.13
2018-04-07T14:45:44.796Z,11.87
2018-04-07T14:48:14.678Z,11.70
2018-04-07T14:50:43.790Z,14.53
2018-04-07T14:53:13.688Z,12.60
2018-04-07T14:55:42.791Z,10.53
2018-04-07T14:58:12.687Z,10.30
2018-04-07T15:00:41.792Z,12.77
2018-04-07T15:03:10.943Z,10.67
2018-04-07T15:05:40.084Z,11.50
2018-04-07T15:08:09.982Z,8.90
2018-04-07T15:10:39.098Z,10.00
2018-04-07T15:13:08.220Z,6.85
2018-04-07T15:15:38.086Z,7.87
2018-04-07T15:18:07.207Z,11.32
2018-04-07T15:20:37.082Z,10.87
2018-04-07T15:23:06.226Z,11.27
2018-04-07T15:25:36.130Z,9.10
2018-04-07T15:28:06.063Z,6.65
2018-04-07T15:30:35.174Z,8.23
2018-04-07T15:33:04.316Z,6.62
2018-04-07T15:35:33.430Z,6.53
2018-04-07T15:38:03.293Z,7.70
2018-04-07T15:40:32.405Z,7.78
2018-04-07T15:43:01.531Z,4.55
2018-04-07T15:45:31.415Z,5.23
2018-04-07T15:48:00.514Z,5.40
2018-04-07T15:50:29.636Z,5.43
2018-04-07T15:52:59.494Z,6.50
2018-04-07T15:55:28.634Z,10.73
2018-04-07T15:57:58.504Z,5.17
2018-04-07T16:00:27.628Z,7.05
2018-04-07T16:02:56.750Z,5.45
2018-04-07T16:05:25.866Z,9.38
2018-04-07T16:07:54.954Z,6.40
2018-04-07T16:10:24.090Z,6.03
2018-04-07T16:12:53.201Z,6.85
2018-04-07T16:15:22.304Z,6.07
2018-04-07T16:17:51.440Z,9.20
2018-04-07T16:20:20.595Z,5.93
2018-04-07T16:22:51.394Z,13.12
2018-04-07T16:25:20.541Z,12.07
2018-04-07T16:27:51.422Z,7.56
2018-04-07T16:30:20.564Z,7.70
2018-04-07T16:32:50.642Z,8.56
2018-04-07T16:35:19.817Z,11.38
2018-04-07T16:37:48.910Z,6.60
2018-04-07T16:40:18.026Z,6.68
2018-04-07T16:42:47.137Z,11.52
2018-04-07T16:45:16.286Z,11.20
2018-04-07T16:47:45.402Z,8.82
2018-04-07T16:50:14.526Z,10.73
2018-04-07T16:52:44.423Z,6.60
2018-04-07T16:55:13.559Z,13.20
2018-04-07T16:57:42.651Z,7.33
2018-04-07T17:00:11.760Z,10.80
2018-04-07T17:02:40.894Z,7.47
2018-04-07T17:05:10.020Z,7.43
2018-04-07T17:07:39.898Z,7.10
2018-04-07T17:10:09.019Z,10.53
2018-04-07T17:12:38.128Z,10.00
2018-04-07T17:15:07.264Z,5.07
2018-04-07T17:17:36.371Z,10.33
2018-04-07T17:20:05.502Z,12.80
2018-04-07T17:22:35.389Z,6.97
2018-04-07T17:25:04.497Z,4.90
2018-04-07T17:27:34.396Z,4.13
2018-04-07T17:30:03.494Z,9.85
2018-04-07T17:32:33.400Z,6.77
2018-04-07T17:35:02.519Z,10.95
2018-04-07T17:37:33.163Z,11.17
2018-04-07T17:40:02.304Z,12.40
2018-04-07T17:42:32.209Z,10.20
2018-04-07T17:45:01.438Z,9.45
2018-04-07T17:47:30.548Z,13.23
2018-04-07T17:50:00.431Z,8.13
2018-04-07T17:52:29.561Z,12.20
2018-04-07T17:54:58.706Z,8.40
2018-04-07T17:57:27.840Z,11.87
2018-04-07T17:59:56.944Z,7.40
2018-04-07T18:02:26.845Z,5.83
2018-04-07T18:04:56.770Z,9.50
2018-04-07T18:07:25.858Z,11.97
2018-04-07T18:09:55.757Z,8.18
2018-04-07T18:12:24.867Z,9.33
2018-04-07T18:14:54.749Z,6.17
2018-04-07T18:17:23.875Z,6.63
2018-04-07T18:19:53.759Z,10.03
2018-04-07T18:22:22.889Z,14.73
2018-04-07T18:24:52.038Z,11.07
2018-04-07T18:27:21.189Z,7.93
2018-04-07T18:29:50.799Z,10.20
2018-04-07T18:32:19.903Z,11.53
2018-04-07T18:34:49.046Z,8.43
2018-04-07T18:37:18.154Z,8.53
2018-04-07T18:39:48.054Z,18.07
2018-04-07T18:42:17.935Z,9.20
2018-04-07T18:44:47.075Z,8.40
2018-04-07T18:47:16.965Z,7.63
2018-04-07T18:49:46.072Z,9.07
2018-04-07T18:52:15.202Z,12.03
2018-04-07T18:54:44.303Z,22.43
2018-04-07T18:57:13.432Z,7.20
2018-04-07T18:59:42.624Z,10.80
2018-04-07T19:02:11.771Z,7.83
2018-04-07T19:04:40.867Z,18.10
2018-04-07T19:07:10.004Z,12.90
2018-04-07T19:09:39.102Z,10.67
2018-04-07T19:12:08.238Z,12.10
2018-04-07T19:14:37.343Z,14.77
2018-04-07T19:17:06.475Z,15.00
2018-04-07T19:19:35.600Z,10.93
2018-04-07T19:22:05.501Z,15.88
2018-04-07T19:24:34.645Z,8.87
2018-04-07T19:27:03.763Z,14.65
2018-04-07T19:29:32.902Z,12.10
2018-04-07T19:32:03.061Z,15.98
2018-04-07T19:34:32.235Z,14.63
2018-04-07T19:37:01.360Z,17.20
2018-04-07T19:39:30.512Z,15.10
2018-04-07T19:42:00.406Z,14.38
2018-04-07T19:44:29.532Z,11.70
2018-04-07T19:46:58.645Z,14.98
2018-04-07T19:49:27.787Z,14.10
2018-04-07T19:51:56.893Z,12.70
2018-04-07T19:54:26.807Z,13.63
2018-04-07T19:56:56.687Z,10.65
2018-04-07T19:59:25.815Z,10.97
2018-04-07T20:01:56.819Z,16.48
2018-04-07T20:04:26.701Z,12.33
2018-04-07T20:06:55.831Z,15.98
2018-04-07T20:09:24.935Z,11.00
2018-04-07T20:11:54.075Z,14.33
2018-04-07T20:14:23.197Z,14.77
2018-04-07T20:16:52.339Z,21.67
2018-04-07T20:19:22.218Z,9.83
2018-04-07T20:21:52.120Z,12.43
2018-04-07T20:24:21.226Z,13.83
2018-04-07T20:26:51.803Z,10.02
2018-04-07T20:29:20.922Z,17.07
2018-04-07T20:31:50.932Z,14.13
2018-04-07T20:34:20.050Z,12.50
2018-04-07T20:36:49.181Z,14.73
2018-04-07T20:39:19.080Z,15.77
2018-04-07T20:41:48.187Z,13.50
2018-04-07T20:44:33.902Z,11.43
2018-04-07T20:47:03.096Z,13.00
2018-04-07T20:49:32.191Z,12.27
2018-04-07T20:52:01.318Z,13.65
2018-04-07T20:54:30.443Z,11.03
2018-04-07T20:56:59.574Z,11.82
2018-04-07T20:59:29.485Z,12.87
2018-04-07T21:01:58.604Z,13.83
2018-04-07T21:04:27.734Z,12.27
2018-04-07T21:06:56.843Z,14.73
2018-04-07T21:09:26.743Z,12.73
2018-04-07T21:11:55.875Z,13.88
2018-04-07T21:14:25.023Z,12.87
2018-04-07T21:16:54.148Z,15.33
2018-04-07T21:19:24.082Z,10.93
2018-04-07T21:21:53.203Z,21.20
2018-04-07T21:24:22.343Z,11.77
2018-04-07T21:26:52.219Z,16.13
2018-04-07T21:29:21.334Z,12.33
2018-04-07T21:31:51.010Z,12.53
2018-04-07T21:34:20.133Z,11.47
2018-04-07T21:36:49.258Z,13.40
2018-04-07T21:39:18.379Z,10.67
2018-04-07T21:41:48.292Z,16.13
2018-04-07T21:44:17.408Z,15.43
2018-04-07T21:46:46.573Z,15.53
2018-04-07T21:49:15.694Z,16.10
2018-04-07T21:51:44.830Z,11.50
2018-04-07T21:54:14.704Z,16.03
2018-04-07T21:56:43.855Z,16.10
2018-04-07T21:59:12.978Z,17.50
2018-04-07T22:01:42.114Z,22.40
2018-04-07T22:04:11.998Z,19.53
2018-04-07T22:06:41.110Z,16.77
2018-04-07T22:09:10.229Z,16.03
2018-04-07T22:11:39.373Z,13.83
2018-04-07T22:14:08.504Z,13.03
2018-04-07T22:16:37.609Z,13.30
2018-04-07T22:19:07.547Z,18.42
2018-04-07T22:21:36.654Z,16.10
2018-04-07T22:24:05.796Z,16.85
2018-04-07T22:26:35.748Z,19.03
2018-04-07T22:29:04.859Z,19.23
2018-04-07T22:31:33.978Z,17.93
2018-04-07T22:34:03.095Z,20.23
2018-04-07T22:36:32.233Z,16.90
2018-04-07T22:39:01.351Z,15.55
2018-04-07T22:41:30.485Z,18.47
2018-04-07T22:44:00.375Z,18.35
2018-04-07T22:46:29.527Z,18.00
2018-04-07T22:48:58.657Z,21.02
2018-04-07T22:51:28.558Z,18.73
2018-04-07T22:53:57.668Z,18.00
2018-04-07T22:56:26.803Z,19.47
2018-04-07T22:58:56.674Z,17.62
2018-04-07T23:01:25.824Z,19.47
2018-04-07T23:03:54.938Z,16.73
2018-04-07T23:06:24.085Z,20.77
2018-04-07T23:08:53.223Z,15.30
2018-04-07T23:11:22.346Z,20.87
2018-04-07T23:13:51.489Z,19.47
2018-04-07T23:16:20.607Z,18.00
2018-04-07T23:18:51.764Z,20.47
2018-04-07T23:21:20.876Z,20.27
2018-04-07T23:23:51.246Z,17.27
2018-04-07T23:26:20.369Z,18.20
2018-04-07T23:28:49.525Z,18.77
2018-04-07T23:31:19.421Z,18.77
2018-04-07T23:33:49.335Z,21.43
2018-04-07T23:36:19.224Z,20.27
2018-04-07T23:38:48.370Z,20.67
2018-04-07T23:41:17.509Z,19.20
2018-04-07T23:43:46.644Z,18.80
2018-04-07T23:46:16.521Z,20.30
2018-04-07T23:48:45.620Z,19.50
2018-04-07T23:51:14.757Z,19.13
2018-04-07T23:53:43.878Z,18.63
2018-04-07T23:56:13.018Z,16.63
2018-04-07T23:58:42.890Z,17.70
